sensor_id;sensor_type;location;lat;lon;timestamp;P1;durP1;ratioP1;P2;durP2;ratioP2
77535;SDS011;66659;44.498;0.166;2023-04-25T00:02:53;1.63;;;1.37;;
77535;SDS011;66659;44.498;0.166;2023-04-25T00:08:25;1.60;;;1.23;;
77535;SDS011;66659;44.498;0.166;2023-04-25T00:13:58;2.80;;;1.57;;
77535;SDS011;66659;44.498;0.166;2023-04-25T00:19:30;2.10;;;1.03;;
77535;SDS011;66659;44.498;0.166;2023-04-25T00:25:04;1.33;;;1.13;;
77535;SDS011;66659;44.498;0.166;2023-04-25T00:30:36;1.60;;;1.20;;
77535;SDS011;66659;44.498;0.166;2023-04-25T00:36:09;1.63;;;1.20;;
77535;SDS011;66659;44.498;0.166;2023-04-25T00:41:41;1.53;;;1.43;;
77535;SDS011;66659;44.498;0.166;2023-04-25T00:47:14;1.80;;;1.37;;
77535;SDS011;66659;44.498;0.166;2023-04-25T00:52:46;1.80;;;1.43;;
77535;SDS011;66659;44.498;0.166;2023-04-25T00:58:19;3.20;;;1.73;;
77535;SDS011;66659;44.498;0.166;2023-04-25T01:03:51;2.47;;;1.60;;
77535;SDS011;66659;44.498;0.166;2023-04-25T01:09:24;1.50;;;1.30;;
77535;SDS011;66659;44.498;0.166;2023-04-25T01:14:56;1.83;;;1.57;;
77535;SDS011;66659;44.498;0.166;2023-04-25T01:20:29;1.93;;;1.40;;
77535;SDS011;66659;44.498;0.166;2023-04-25T01:26:01;2.70;;;1.43;;
77535;SDS011;66659;44.498;0.166;2023-04-25T01:31:35;2.17;;;1.70;;
77535;SDS011;66659;44.498;0.166;2023-04-25T01:37:08;3.37;;;1.70;;
77535;SDS011;66659;44.498;0.166;2023-04-25T01:42:42;1.53;;;1.43;;
77535;SDS011;66659;44.498;0.166;2023-04-25T01:48:13;2.30;;;1.90;;
77535;SDS011;66659;44.498;0.166;2023-04-25T01:53:47;3.17;;;1.47;;
77535;SDS011;66659;44.498;0.166;2023-04-25T01:59:22;2.10;;;1.60;;
77535;SDS011;66659;44.498;0.166;2023-04-25T02:04:54;1.83;;;1.53;;
77535;SDS011;66659;44.498;0.166;2023-04-25T02:10:28;4.20;;;1.97;;
77535;SDS011;66659;44.498;0.166;2023-04-25T02:15:59;2.73;;;1.70;;
77535;SDS011;66659;44.498;0.166;2023-04-25T02:21:32;2.73;;;1.50;;
77535;SDS011;66659;44.498;0.166;2023-04-25T02:27:06;2.40;;;1.87;;
77535;SDS011;66659;44.498;0.166;2023-04-25T02:32:40;2.73;;;1.83;;
77535;SDS011;66659;44.498;0.166;2023-04-25T02:38:12;1.73;;;1.63;;
77535;SDS011;66659;44.498;0.166;2023-04-25T02:43:45;2.10;;;1.83;;
77535;SDS011;66659;44.498;0.166;2023-04-25T02:49:19;2.33;;;1.90;;
77535;SDS011;66659;44.498;0.166;2023-04-25T02:54:51;2.00;;;1.80;;
77535;SDS011;66659;44.498;0.166;2023-04-25T03:00:23;1.50;;;1.40;;
77535;SDS011;66659;44.498;0.166;2023-04-25T03:05:55;2.37;;;1.60;;
77535;SDS011;66659;44.498;0.166;2023-04-25T03:11:29;2.20;;;1.67;;
77535;SDS011;66659;44.498;0.166;2023-04-25T03:17:02;2.23;;;1.40;;
77535;SDS011;66659;44.498;0.166;2023-04-25T03:22:34;1.90;;;1.70;;
77535;SDS011;66659;44.498;0.166;2023-04-25T03:28:08;1.73;;;1.50;;
77535;SDS011;66659;44.498;0.166;2023-04-25T03:33:41;2.00;;;1.60;;
77535;SDS011;66659;44.498;0.166;2023-04-25T03:39:13;1.57;;;1.33;;
77535;SDS011;66659;44.498;0.166;2023-04-25T03:44:47;1.50;;;1.40;;
77535;SDS011;66659;44.498;0.166;2023-04-25T03:50:19;2.80;;;1.53;;
77535;SDS011;66659;44.498;0.166;2023-04-25T03:55:52;1.80;;;1.70;;
77535;SDS011;66659;44.498;0.166;2023-04-25T04:01:26;3.70;;;1.97;;
77535;SDS011;66659;44.498;0.166;2023-04-25T04:06:58;1.73;;;1.50;;
77535;SDS011;66659;44.498;0.166;2023-04-25T04:12:31;1.50;;;1.40;;
77535;SDS011;66659;44.498;0.166;2023-04-25T04:18:04;1.60;;;1.50;;
77535;SDS011;66659;44.498;0.166;2023-04-25T04:23:36;1.93;;;1.60;;
77535;SDS011;66659;44.498;0.166;2023-04-25T04:29:09;1.40;;;1.30;;
77535;SDS011;66659;44.498;0.166;2023-04-25T04:34:41;1.60;;;1.40;;
77535;SDS011;66659;44.498;0.166;2023-04-25T04:40:16;3.37;;;1.70;;
77535;SDS011;66659;44.498;0.166;2023-04-25T04:45:46;1.73;;;1.20;;
77535;SDS011;66659;44.498;0.166;2023-04-25T04:51:19;1.33;;;1.23;;
77535;SDS011;66659;44.498;0.166;2023-04-25T04:56:53;2.03;;;1.60;;
77535;SDS011;66659;44.498;0.166;2023-04-25T05:02:25;1.90;;;1.40;;
77535;SDS011;66659;44.498;0.166;2023-04-25T05:07:59;1.47;;;1.33;;
77535;SDS011;66659;44.498;0.166;2023-04-25T05:13:33;1.80;;;1.57;;
77535;SDS011;66659;44.498;0.166;2023-04-25T05:19:07;1.53;;;1.23;;
77535;SDS011;66659;44.498;0.166;2023-04-25T05:24:39;2.10;;;1.47;;
77535;SDS011;66659;44.498;0.166;2023-04-25T05:30:13;1.33;;;1.23;;
77535;SDS011;66659;44.498;0.166;2023-04-25T05:35:45;2.17;;;1.30;;
77535;SDS011;66659;44.498;0.166;2023-04-25T05:41:18;1.30;;;1.20;;
77535;SDS011;66659;44.498;0.166;2023-04-25T05:46:50;2.23;;;1.23;;
77535;SDS011;66659;44.498;0.166;2023-04-25T05:52:23;1.60;;;1.30;;
77535;SDS011;66659;44.498;0.166;2023-04-25T05:57:56;2.10;;;1.50;;
77535;SDS011;66659;44.498;0.166;2023-04-25T06:03:30;1.40;;;1.07;;
77535;SDS011;66659;44.498;0.166;2023-04-25T06:09:03;1.23;;;1.13;;
77535;SDS011;66659;44.498;0.166;2023-04-25T06:14:40;1.13;;;1.03;;
77535;SDS011;66659;44.498;0.166;2023-04-25T06:20:11;1.60;;;1.23;;
77535;SDS011;66659;44.498;0.166;2023-04-25T06:25:43;1.87;;;1.20;;
77535;SDS011;66659;44.498;0.166;2023-04-25T06:31:13;1.53;;;1.27;;
77535;SDS011;66659;44.498;0.166;2023-04-25T06:36:49;1.20;;;1.10;;
77535;SDS011;66659;44.498;0.166;2023-04-25T06:42:20;1.90;;;1.10;;
77535;SDS011;66659;44.498;0.166;2023-04-25T06:47:55;1.70;;;1.07;;
77535;SDS011;66659;44.498;0.166;2023-04-25T06:53:25;2.00;;;1.20;;
77535;SDS011;66659;44.498;0.166;2023-04-25T06:58:58;1.50;;;1.07;;
77535;SDS011;66659;44.498;0.166;2023-04-25T07:04:32;1.67;;;1.30;;
77535;SDS011;66659;44.498;0.166;2023-04-25T07:10:04;2.60;;;1.40;;
77535;SDS011;66659;44.498;0.166;2023-04-25T07:15:38;1.43;;;1.23;;
77535;SDS011;66659;44.498;0.166;2023-04-25T07:21:09;1.30;;;1.03;;
77535;SDS011;66659;44.498;0.166;2023-04-25T07:26:41;3.03;;;1.50;;
77535;SDS011;66659;44.498;0.166;2023-04-25T07:32:16;14.40;;;1.63;;
77535;SDS011;66659;44.498;0.166;2023-04-25T07:37:48;1.47;;;1.10;;
77535;SDS011;66659;44.498;0.166;2023-04-25T07:43:20;5.27;;;1.40;;
77535;SDS011;66659;44.498;0.166;2023-04-25T07:48:54;1.50;;;1.20;;
77535;SDS011;66659;44.498;0.166;2023-04-25T07:54:26;1.77;;;1.40;;
77535;SDS011;66659;44.498;0.166;2023-04-25T07:59:59;2.13;;;1.30;;
77535;SDS011;66659;44.498;0.166;2023-04-25T08:05:31;4.67;;;1.60;;
77535;SDS011;66659;44.498;0.166;2023-04-25T08:11:04;6.83;;;1.70;;
77535;SDS011;66659;44.498;0.166;2023-04-25T08:16:36;2.40;;;1.70;;
77535;SDS011;66659;44.498;0.166;2023-04-25T08:22:09;6.07;;;1.50;;
77535;SDS011;66659;44.498;0.166;2023-04-25T08:27:43;2.83;;;1.53;;
77535;SDS011;66659;44.498;0.166;2023-04-25T08:33:14;7.07;;;1.87;;
77535;SDS011;66659;44.498;0.166;2023-04-25T08:38:50;5.53;;;2.50;;
77535;SDS011;66659;44.498;0.166;2023-04-25T08:44:20;3.77;;;2.20;;
77535;SDS011;66659;44.498;0.166;2023-04-25T08:49:54;12.67;;;3.30;;
77535;SDS011;66659;44.498;0.166;2023-04-25T08:55:27;7.73;;;2.73;;
77535;SDS011;66659;44.498;0.166;2023-04-25T09:01:00;7.17;;;2.40;;
77535;SDS011;66659;44.498;0.166;2023-04-25T09:06:35;5.27;;;2.27;;
77535;SDS011;66659;44.498;0.166;2023-04-25T09:12:07;5.97;;;2.50;;
77535;SDS011;66659;44.498;0.166;2023-04-25T09:17:41;4.97;;;3.10;;
77535;SDS011;66659;44.498;0.166;2023-04-25T09:23:14;3.47;;;2.37;;
77535;SDS011;66659;44.498;0.166;2023-04-25T09:28:44;2.77;;;2.00;;
77535;SDS011;66659;44.498;0.166;2023-04-25T09:34:19;5.00;;;2.27;;
77535;SDS011;66659;44.498;0.166;2023-04-25T09:39:51;7.17;;;2.57;;
77535;SDS011;66659;44.498;0.166;2023-04-25T09:45:23;5.10;;;2.20;;
77535;SDS011;66659;44.498;0.166;2023-04-25T09:56:29;3.90;;;2.10;;
77535;SDS011;66659;44.498;0.166;2023-04-25T10:02:05;1.70;;;1.60;;
77535;SDS011;66659;44.498;0.166;2023-04-25T10:07:36;5.53;;;2.20;;
77535;SDS011;66659;44.498;0.166;2023-04-25T10:13:07;2.60;;;1.80;;
77535;SDS011;66659;44.498;0.166;2023-04-25T10:18:39;2.20;;;1.70;;
77535;SDS011;66659;44.498;0.166;2023-04-25T10:24:11;2.87;;;2.00;;
77535;SDS011;66659;44.498;0.166;2023-04-25T10:29:45;2.80;;;1.60;;
77535;SDS011;66659;44.498;0.166;2023-04-25T10:35:19;4.13;;;1.50;;
77535;SDS011;66659;44.498;0.166;2023-04-25T10:46:25;1.97;;;1.57;;
77535;SDS011;66659;44.498;0.166;2023-04-25T10:57:30;2.23;;;1.70;;
77535;SDS011;66659;44.498;0.166;2023-04-25T11:03:02;2.10;;;1.50;;
77535;SDS011;66659;44.498;0.166;2023-04-25T11:08:37;1.60;;;1.30;;
77535;SDS011;66659;44.498;0.166;2023-04-25T11:14:07;1.70;;;1.17;;
77535;SDS011;66659;44.498;0.166;2023-04-25T11:19:41;1.40;;;1.23;;
77535;SDS011;66659;44.498;0.166;2023-04-25T11:25:15;3.57;;;1.50;;
77535;SDS011;66659;44.498;0.166;2023-04-25T11:30:48;2.00;;;1.23;;
77535;SDS011;66659;44.498;0.166;2023-04-25T11:41:53;3.10;;;1.37;;
77535;SDS011;66659;44.498;0.166;2023-04-25T11:47:29;1.60;;;1.47;;
77535;SDS011;66659;44.498;0.166;2023-04-25T11:52:57;1.97;;;1.50;;
77535;SDS011;66659;44.498;0.166;2023-04-25T11:58:30;2.13;;;1.30;;
77535;SDS011;66659;44.498;0.166;2023-04-25T12:04:11;1.83;;;1.37;;
77535;SDS011;66659;44.498;0.166;2023-04-25T12:09:36;1.83;;;1.40;;
77535;SDS011;66659;44.498;0.166;2023-04-25T12:15:12;1.77;;;1.20;;
77535;SDS011;66659;44.498;0.166;2023-04-25T12:20:43;1.80;;;1.60;;
77535;SDS011;66659;44.498;0.166;2023-04-25T12:26:18;5.00;;;1.23;;
77535;SDS011;66659;44.498;0.166;2023-04-25T12:42:58;2.30;;;1.80;;
77535;SDS011;66659;44.498;0.166;2023-04-25T12:48:30;3.17;;;1.63;;
77535;SDS011;66659;44.498;0.166;2023-04-25T12:54:04;4.60;;;1.53;;
77535;SDS011;66659;44.498;0.166;2023-04-25T12:59:36;7.67;;;1.60;;
77535;SDS011;66659;44.498;0.166;2023-04-25T13:05:09;1.60;;;1.20;;
77535;SDS011;66659;44.498;0.166;2023-04-25T13:10:42;1.97;;;1.50;;
77535;SDS011;66659;44.498;0.166;2023-04-25T13:16:16;2.50;;;1.33;;
77535;SDS011;66659;44.498;0.166;2023-04-25T13:21:47;1.77;;;1.27;;
77535;SDS011;66659;44.498;0.166;2023-04-25T13:27:20;1.63;;;1.27;;
77535;SDS011;66659;44.498;0.166;2023-04-25T13:32:54;2.47;;;1.30;;
77535;SDS011;66659;44.498;0.166;2023-04-25T13:38:26;2.00;;;1.30;;
77535;SDS011;66659;44.498;0.166;2023-04-25T13:44:00;3.30;;;1.40;;
77535;SDS011;66659;44.498;0.166;2023-04-25T13:49:32;5.20;;;1.50;;
77535;SDS011;66659;44.498;0.166;2023-04-25T13:55:04;13.70;;;1.60;;
77535;SDS011;66659;44.498;0.166;2023-04-25T14:00:36;1.90;;;1.17;;
77535;SDS011;66659;44.498;0.166;2023-04-25T14:06:09;2.03;;;1.20;;
77535;SDS011;66659;44.498;0.166;2023-04-25T14:11:41;1.90;;;1.33;;
77535;SDS011;66659;44.498;0.166;2023-04-25T14:17:13;4.60;;;1.40;;
77535;SDS011;66659;44.498;0.166;2023-04-25T14:22:46;2.00;;;1.50;;
77535;SDS011;66659;44.498;0.166;2023-04-25T14:28:19;2.30;;;1.80;;
77535;SDS011;66659;44.498;0.166;2023-04-25T14:33:53;2.17;;;1.57;;
77535;SDS011;66659;44.498;0.166;2023-04-25T14:39:27;2.27;;;1.40;;
77535;SDS011;66659;44.498;0.166;2023-04-25T14:44:59;3.13;;;2.17;;
77535;SDS011;66659;44.498;0.166;2023-04-25T14:50:31;4.10;;;1.80;;
77535;SDS011;66659;44.498;0.166;2023-04-25T14:56:05;2.50;;;1.57;;
77535;SDS011;66659;44.498;0.166;2023-04-25T15:01:39;9.53;;;1.83;;
77535;SDS011;66659;44.498;0.166;2023-04-25T15:07:12;3.73;;;1.60;;
77535;SDS011;66659;44.498;0.166;2023-04-25T15:12:46;3.20;;;2.73;;
77535;SDS011;66659;44.498;0.166;2023-04-25T15:18:22;4.23;;;1.80;;
77535;SDS011;66659;44.498;0.166;2023-04-25T15:23:52;2.23;;;1.50;;
77535;SDS011;66659;44.498;0.166;2023-04-25T15:29:25;6.33;;;1.33;;
77535;SDS011;66659;44.498;0.166;2023-04-25T15:34:56;2.13;;;1.60;;
77535;SDS011;66659;44.498;0.166;2023-04-25T15:40:29;2.20;;;1.40;;
77535;SDS011;66659;44.498;0.166;2023-04-25T15:46:02;1.77;;;1.43;;
77535;SDS011;66659;44.498;0.166;2023-04-25T15:51:35;2.97;;;1.30;;
77535;SDS011;66659;44.498;0.166;2023-04-25T15:57:07;1.90;;;1.50;;
77535;SDS011;66659;44.498;0.166;2023-04-25T16:02:41;2.40;;;1.30;;
77535;SDS011;66659;44.498;0.166;2023-04-25T16:08:13;2.40;;;1.47;;
77535;SDS011;66659;44.498;0.166;2023-04-25T16:13:45;3.90;;;1.47;;
77535;SDS011;66659;44.498;0.166;2023-04-25T16:19:18;2.57;;;1.30;;
77535;SDS011;66659;44.498;0.166;2023-04-25T16:24:51;1.70;;;1.10;;
77535;SDS011;66659;44.498;0.166;2023-04-25T16:30:23;2.20;;;1.30;;
77535;SDS011;66659;44.498;0.166;2023-04-25T16:35:57;1.47;;;1.03;;
77535;SDS011;66659;44.498;0.166;2023-04-25T16:41:29;1.67;;;1.43;;
77535;SDS011;66659;44.498;0.166;2023-04-25T16:47:02;1.77;;;1.53;;
77535;SDS011;66659;44.498;0.166;2023-04-25T16:52:34;1.53;;;1.27;;
77535;SDS011;66659;44.498;0.166;2023-04-25T16:58:07;3.47;;;1.80;;
77535;SDS011;66659;44.498;0.166;2023-04-25T17:03:39;1.80;;;1.30;;
77535;SDS011;66659;44.498;0.166;2023-04-25T17:09:12;3.07;;;1.30;;
77535;SDS011;66659;44.498;0.166;2023-04-25T17:14:47;3.73;;;1.50;;
77535;SDS011;66659;44.498;0.166;2023-04-25T17:20:18;1.77;;;1.40;;
77535;SDS011;66659;44.498;0.166;2023-04-25T17:25:52;3.07;;;1.53;;
77535;SDS011;66659;44.498;0.166;2023-04-25T17:31:24;1.90;;;1.13;;
77535;SDS011;66659;44.498;0.166;2023-04-25T17:36:58;2.40;;;1.47;;
77535;SDS011;66659;44.498;0.166;2023-04-25T17:42:31;1.53;;;1.40;;
77535;SDS011;66659;44.498;0.166;2023-04-25T17:48:04;1.27;;;1.13;;
77535;SDS011;66659;44.498;0.166;2023-04-25T17:53:37;2.30;;;1.40;;
77535;SDS011;66659;44.498;0.166;2023-04-25T17:59:10;1.90;;;1.70;;
77535;SDS011;66659;44.498;0.166;2023-04-25T18:26:59;1.17;;;0.93;;
77535;SDS011;66659;44.498;0.166;2023-04-25T18:32:29;3.70;;;1.27;;
77535;SDS011;66659;44.498;0.166;2023-04-25T18:38:00;1.27;;;1.17;;
77535;SDS011;66659;44.498;0.166;2023-04-25T18:43:34;2.63;;;1.17;;
77535;SDS011;66659;44.498;0.166;2023-04-25T18:49:08;1.90;;;1.30;;
77535;SDS011;66659;44.498;0.166;2023-04-25T18:54:42;2.37;;;1.20;;
77535;SDS011;66659;44.498;0.166;2023-04-25T19:00:16;1.57;;;1.17;;
77535;SDS011;66659;44.498;0.166;2023-04-25T19:05:46;1.80;;;1.40;;
77535;SDS011;66659;44.498;0.166;2023-04-25T19:11:20;1.97;;;1.10;;
77535;SDS011;66659;44.498;0.166;2023-04-25T19:16:53;1.60;;;1.33;;
77535;SDS011;66659;44.498;0.166;2023-04-25T19:22:27;1.47;;;1.27;;
77535;SDS011;66659;44.498;0.166;2023-04-25T19:28:00;1.87;;;1.40;;
77535;SDS011;66659;44.498;0.166;2023-04-25T19:33:31;1.83;;;1.33;;
77535;SDS011;66659;44.498;0.166;2023-04-25T19:39:06;2.00;;;1.20;;
77535;SDS011;66659;44.498;0.166;2023-04-25T19:44:39;1.90;;;1.40;;
77535;SDS011;66659;44.498;0.166;2023-04-25T19:50:10;2.03;;;1.40;;
77535;SDS011;66659;44.498;0.166;2023-04-25T19:55:43;2.10;;;1.23;;
77535;SDS011;66659;44.498;0.166;2023-04-25T20:01:16;3.00;;;1.60;;
77535;SDS011;66659;44.498;0.166;2023-04-25T20:06:48;3.17;;;1.90;;
77535;SDS011;66659;44.498;0.166;2023-04-25T20:12:21;3.03;;;1.60;;
77535;SDS011;66659;44.498;0.166;2023-04-25T20:17:53;2.17;;;1.40;;
77535;SDS011;66659;44.498;0.166;2023-04-25T20:23:26;1.57;;;1.47;;
77535;SDS011;66659;44.498;0.166;2023-04-25T20:28:59;1.87;;;1.43;;
77535;SDS011;66659;44.498;0.166;2023-04-25T20:34:32;1.93;;;1.53;;
77535;SDS011;66659;44.498;0.166;2023-04-25T20:40:05;2.23;;;1.40;;
77535;SDS011;66659;44.498;0.166;2023-04-25T20:45:37;2.80;;;1.87;;
77535;SDS011;66659;44.498;0.166;2023-04-25T20:51:10;2.00;;;1.50;;
77535;SDS011;66659;44.498;0.166;2023-04-25T20:56:43;1.77;;;1.43;;
77535;SDS011;66659;44.498;0.166;2023-04-25T21:02:16;3.83;;;1.80;;
77535;SDS011;66659;44.498;0.166;2023-04-25T21:07:50;1.40;;;1.27;;
77535;SDS011;66659;44.498;0.166;2023-04-25T21:13:22;2.17;;;1.47;;
77535;SDS011;66659;44.498;0.166;2023-04-25T21:18:54;2.67;;;1.60;;
77535;SDS011;66659;44.498;0.166;2023-04-25T21:24:27;1.87;;;1.50;;
77535;SDS011;66659;44.498;0.166;2023-04-25T21:30:01;1.87;;;1.50;;
77535;SDS011;66659;44.498;0.166;2023-04-25T21:35:32;2.13;;;1.33;;
77535;SDS011;66659;44.498;0.166;2023-04-25T21:41:05;2.50;;;1.60;;
77535;SDS011;66659;44.498;0.166;2023-04-25T21:46:38;6.73;;;1.60;;
77535;SDS011;66659;44.498;0.166;2023-04-25T21:52:10;2.27;;;1.43;;
77535;SDS011;66659;44.498;0.166;2023-04-25T21:57:42;2.17;;;1.57;;
77535;SDS011;66659;44.498;0.166;2023-04-25T22:03:15;2.47;;;1.63;;
77535;SDS011;66659;44.498;0.166;2023-04-25T22:08:47;1.90;;;1.50;;
77535;SDS011;66659;44.498;0.166;2023-04-25T22:14:21;2.27;;;1.57;;
77535;SDS011;66659;44.498;0.166;2023-04-25T22:19:54;2.27;;;1.53;;
77535;SDS011;66659;44.498;0.166;2023-04-25T22:25:27;2.47;;;1.50;;
77535;SDS011;66659;44.498;0.166;2023-04-25T22:31:01;1.80;;;1.30;;
77535;SDS011;66659;44.498;0.166;2023-04-25T22:36:33;2.53;;;1.70;;
77535;SDS011;66659;44.498;0.166;2023-04-25T22:42:06;3.07;;;1.40;;
77535;SDS011;66659;44.498;0.166;2023-04-25T22:47:39;2.93;;;1.70;;
77535;SDS011;66659;44.498;0.166;2023-04-25T22:53:11;2.00;;;1.83;;
77535;SDS011;66659;44.498;0.166;2023-04-25T22:58:44;1.53;;;1.30;;
77535;SDS011;66659;44.498;0.166;2023-04-25T23:04:18;1.73;;;1.50;;
77535;SDS011;66659;44.498;0.166;2023-04-25T23:09:51;1.63;;;1.40;;
77535;SDS011;66659;44.498;0.166;2023-04-25T23:15:24;1.47;;;1.37;;
77535;SDS011;66659;44.498;0.166;2023-04-25T23:20:58;2.30;;;1.50;;
77535;SDS011;66659;44.498;0.166;2023-04-25T23:26:28;1.67;;;1.23;;
77535;SDS011;66659;44.498;0.166;2023-04-25T23:32:00;2.00;;;1.50;;
77535;SDS011;66659;44.498;0.166;2023-04-25T23:37:32;1.60;;;1.47;;
77535;SDS011;66659;44.498;0.166;2023-04-25T23:43:05;2.30;;;1.33;;
77535;SDS011;66659;44.498;0.166;2023-04-25T23:48:37;1.70;;;1.43;;
77535;SDS011;66659;44.498;0.166;2023-04-25T23:54:10;1.90;;;1.60;;
77535;SDS011;66659;44.498;0.166;2023-04-25T23:59:43;2.20;;;1.60;;
